Time;durP1;ratioP1;P1;durP2;ratioP2;P2;SDS_P1;SDS_P2;PMS_P1;PMS_P2;Temp;Humidity;BMP_temperature;BMP_pressure;BME280_temperature;BME280_humidity;BME280_pressure;Samples;Min_cycle;Max_cycle;Signal;HPM_P1;HPM_P2
2021/09/30 00:00:13;;;;;;;;;8.00;6.00;;;;;11.08;62.47;102100.06;5058814;28;45235;-60
2021/09/30 00:02:39;;;;;;;;;7.50;4.00;;;;;11.05;62.54;102100.25;5040593;28;45443;-60
2021/09/30 00:05:05;;;;;;;;;3.50;3.00;;;;;11.04;63.35;102093.31;5039781;28;46655;-60
2021/09/30 00:07:30;;;;;;;;;7.00;2.00;;;;;11.05;63.23;102089.72;5058559;28;46645;-60
2021/09/30 00:09:56;;;;;;;;;3.50;3.50;;;;;11.08;63.31;102096.56;5058120;28;54146;-60
2021/09/30 00:12:26;;;;;;;;;5.75;2.75;;;;;11.08;63.19;102097.41;5040576;28;45454;-60
2021/09/30 00:42:07;;;;;;;;;3.00;3.00;;;;;10.79;63.09;102105.41;5058189;28;45378;-60
2021/09/30 00:47:51;;;;;;;;;4.25;3.00;;;;;10.68;62.88;102099.97;5057804;28;45778;-60
2021/09/30 01:40:24;;;;;;;;;7.00;5.00;;;;;10.29;64.60;102064.75;5042034;28;45310;-59
2021/09/30 01:52:07;;;;;;;;;6.25;4.00;;;;;10.27;63.56;102064.00;5041924;28;45419;-60
2021/09/30 03:00:14;;;;;;;;;4.75;3.25;;;;;9.75;63.69;102050.53;5026742;28;45874;-60
2021/09/30 03:02:41;;;;;;;;;3.25;3.25;;;;;9.76;63.48;102046.97;5056139;28;45368;-60
2021/09/30 03:05:07;;;;;;;;;4.75;2.75;;;;;9.75;63.65;102045.28;5038257;28;45481;-60
2021/09/30 03:07:32;;;;;;;;;3.00;3.00;;;;;9.75;63.99;102040.03;5021109;28;48529;-60
2021/09/30 03:09:58;;;;;;;;;4.00;2.00;;;;;9.72;64.33;102045.47;5055100;28;66585;-60
2021/09/30 03:12:28;;;;;;;;;2.75;2.50;;;;;9.68;64.09;102038.72;5037918;28;45355;-60
2021/09/30 03:15:06;;;;;;;;;4.75;3.50;;;;;9.64;64.00;102041.53;5038994;28;45274;-60
2021/09/30 03:17:43;;;;;;;;;2.00;2.00;;;;;9.60;64.05;102047.88;5023045;28;46622;-61
2021/09/30 03:20:29;;;;;;;;;5.00;2.00;;;;;9.56;64.23;102046.38;5039061;28;45888;-60
2021/09/30 03:23:04;;;;;;;;;3.00;2.00;;;;;9.55;64.61;102055.19;5053800;28;45322;-60
2021/09/30 03:25:30;;;;;;;;;3.25;3.00;;;;;9.55;64.42;102041.25;5055938;28;45333;-60
2021/09/30 03:27:55;;;;;;;;;3.50;3.25;;;;;9.55;63.78;102054.38;5055656;28;45489;-60
2021/09/30 03:30:25;;;;;;;;;2.25;2.25;;;;;9.53;63.44;102056.22;5019972;28;70673;-60
2021/09/30 03:32:51;;;;;;;;;5.25;2.25;;;;;9.52;63.70;102055.41;5040120;28;45390;-60
2021/09/30 03:35:16;;;;;;;;;4.25;3.00;;;;;9.52;64.06;102052.78;5024613;28;45352;-60
2021/09/30 03:37:41;;;;;;;;;3.50;3.00;;;;;9.49;63.65;102052.97;5041440;28;46418;-60
2021/09/30 03:40:07;;;;;;;;;4.00;3.75;;;;;9.47;63.79;102052.22;5023750;28;62599;-60
2021/09/30 03:42:33;;;;;;;;;2.00;2.00;;;;;9.43;64.13;102051.53;5058930;28;45232;-60
2021/09/30 03:44:58;;;;;;;;;3.75;2.25;;;;;9.41;64.41;102048.16;5040015;28;66367;-60
2021/09/30 03:47:23;;;;;;;;;3.25;3.00;;;;;9.38;64.69;102053.56;5058104;28;69908;-60
2021/09/30 03:49:50;;;;;;;;;3.50;3.00;;;;;9.38;64.87;102053.56;5058805;28;45416;-60
2021/09/30 04:00:30;;;;;;;;;3.25;3.00;;;;;9.29;64.64;102051.50;5021181;28;45507;-60
2021/09/30 04:02:56;;;;;;;;;2.75;2.75;;;;;9.27;64.92;102062.09;5057832;28;63271;-60
2021/09/30 04:05:21;;;;;;;;;5.75;3.00;;;;;9.28;64.83;102063.78;5058033;28;59740;-60
2021/09/30 04:07:47;;;;;;;;;8.50;6.25;;;;;9.27;65.03;102067.34;5058224;28;45402;-60
2021/09/30 04:10:12;;;;;;;;;4.00;4.00;;;;;9.25;64.56;102063.13;5057932;28;60051;-60
2021/09/30 04:12:37;;;;;;;;;3.00;3.00;;;;;9.23;64.16;102060.56;5057871;28;59241;-60
2021/09/30 04:15:04;;;;;;;;;6.25;4.00;;;;;9.25;64.76;102071.00;5057779;28;64836;-60
2021/09/30 04:17:29;;;;;;;;;7.00;5.25;;;;;9.24;65.10;102070.13;5058369;28;47208;-60
2021/09/30 04:19:55;;;;;;;;;5.50;4.25;;;;;9.22;64.71;102066.75;5057661;28;67272;-60
2021/09/30 04:22:20;;;;;;;;;5.75;4.50;;;;;9.20;64.68;102072.09;5058191;28;45583;-60
2021/09/30 04:24:48;;;;;;;;;4.00;3.00;;;;;9.17;64.30;102071.41;5040476;28;45622;-60
2021/09/30 04:27:13;;;;;;;;;5.75;3.00;;;;;9.11;64.33;102071.78;5040321;28;45461;-60
2021/09/30 04:29:39;;;;;;;;;5.00;4.00;;;;;9.07;64.63;102073.75;5058102;28;45308;-60
2021/09/30 04:32:05;;;;;;;;;4.00;2.00;;;;;9.05;64.17;102071.19;5039155;28;62397;-60
2021/09/30 04:34:30;;;;;;;;;4.00;4.00;;;;;9.06;64.17;102078.13;5057887;28;45297;-60
2021/09/30 04:36:55;;;;;;;;;4.00;3.75;;;;;9.06;63.96;102064.19;5056843;28;67446;-60
2021/09/30 04:39:21;;;;;;;;;5.00;5.00;;;;;9.03;64.08;102065.19;5057805;28;45334;-60
2021/09/30 04:41:46;;;;;;;;;6.00;5.00;;;;;9.01;64.20;102072.28;5057090;28;58968;-60
2021/09/30 04:44:12;;;;;;;;;4.00;3.75;;;;;9.03;64.46;102074.84;5057351;28;52752;-60
2021/09/30 04:46:37;;;;;;;;;6.25;4.00;;;;;9.03;64.34;102080.91;5057672;28;46463;-60
2021/09/30 04:49:03;;;;;;;;;7.00;4.75;;;;;9.03;64.66;102070.44;5057282;28;51771;-60
2021/09/30 04:51:28;;;;;;;;;5.00;5.00;;;;;9.01;64.82;102061.81;5056934;28;63205;-60
2021/09/30 04:53:54;;;;;;;;;3.25;2.00;;;;;8.99;64.41;102061.09;5039798;28;45618;-60
2021/09/30 04:56:20;;;;;;;;;4.00;3.00;;;;;8.98;63.82;102054.16;5057323;28;46394;-60
2021/09/30 04:58:45;;;;;;;;;5.00;4.00;;;;;8.96;64.08;102050.78;5057436;28;45831;-60
2021/09/30 05:01:11;;;;;;;;;5.50;5.25;;;;;8.94;64.24;102050.00;5038539;28;64037;-60
2021/09/30 05:03:36;;;;;;;;;4.00;4.00;;;;;8.92;64.24;102057.13;5056930;28;56275;-60
2021/09/30 05:06:02;;;;;;;;;5.25;5.25;;;;;8.90;64.46;102053.75;5056966;28;45466;-60
2021/09/30 05:08:32;;;;;;;;;7.75;5.00;;;;;8.89;64.72;102062.53;5057027;28;45866;-60
2021/09/30 05:10:57;;;;;;;;;6.25;6.00;;;;;8.86;64.88;102070.56;5057559;28;45288;-60
2021/09/30 05:13:26;;;;;;;;;7.50;4.75;;;;;8.82;64.75;102075.13;5039403;28;45218;-60
2021/09/30 05:15:51;;;;;;;;;7.75;7.00;;;;;8.85;64.77;102071.50;5038947;28;48073;-60
2021/09/30 05:18:16;;;;;;;;;8.25;6.00;;;;;8.82;64.62;102055.94;5056302;28;61977;-60
2021/09/30 05:20:42;;;;;;;;;6.50;5.00;;;;;8.80;64.74;102070.91;5057052;28;45579;-60
2021/09/30 05:23:07;;;;;;;;;8.25;5.25;;;;;8.78;65.13;102075.41;5056411;28;58200;-60
2021/09/30 05:25:33;;;;;;;;;7.00;5.00;;;;;8.73;65.14;102067.81;5056967;28;46588;-60
2021/09/30 05:27:58;;;;;;;;;9.50;6.00;;;;;8.70;65.40;102075.84;5056907;28;45303;-60
2021/09/30 05:30:23;;;;;;;;;7.00;5.00;;;;;8.66;65.01;102080.38;5056043;28;61232;-60
2021/09/30 05:32:49;;;;;;;;;5.75;5.50;;;;;8.62;65.25;102071.00;5055922;28;65212;-60
2021/09/30 05:35:14;;;;;;;;;5.75;4.25;;;;;8.62;65.04;102063.13;5056790;28;46351;-60
2021/09/30 05:37:40;;;;;;;;;5.00;5.00;;;;;8.61;65.26;102064.06;5056565;28;45405;-60
2021/09/30 05:40:06;;;;;;;;;4.75;4.75;;;;;8.61;65.12;102064.06;5056559;28;45656;-60
2021/09/30 05:42:31;;;;;;;;;5.50;5.50;;;;;8.58;64.98;102074.72;5056709;28;45272;-60
2021/09/30 05:45:06;;;;;;;;;3.25;3.25;;;;;8.56;64.79;102069.59;5056643;28;45609;-60
2021/09/30 05:47:31;;;;;;;;;10.00;6.00;;;;;8.55;64.90;102074.88;5056707;28;45432;-60
2021/09/30 05:49:57;;;;;;;;;4.75;4.75;;;;;8.54;64.78;102081.91;5056673;28;45332;-60
2021/09/30 05:52:22;;;;;;;;;6.75;6.00;;;;;8.52;64.87;102078.53;5056657;28;45401;-60
2021/09/30 05:54:48;;;;;;;;;6.75;4.25;;;;;8.52;64.86;102086.41;5055199;28;71519;-60
2021/09/30 05:57:13;;;;;;;;;5.25;5.25;;;;;8.53;64.56;102090.72;5056388;28;45347;-60
2021/09/30 05:59:39;;;;;;;;;5.00;5.00;;;;;8.54;64.60;102086.28;5056071;28;61082;-60
2021/09/30 06:06:45;;;;;;;;;5.25;5.25;;;;;8.54;65.11;102081.06;5056356;28;45667;-60
2021/09/30 06:10:25;;;;;;;;;6.75;6.00;;;;;8.53;65.37;102084.59;5056689;28;45292;-60
2021/09/30 06:13:27;;;;;;;;;5.00;5.00;;;;;8.52;65.02;102083.78;5038978;28;45450;-60
2021/09/30 06:15:43;;;;;;;;;5.75;5.00;;;;;8.53;64.93;102085.47;5055934;28;46528;-60
2021/09/30 06:18:09;;;;;;;;;6.00;4.25;;;;;8.54;64.87;102079.28;5038639;28;45412;-60
2021/09/30 06:20:35;;;;;;;;;11.25;7.50;;;;;8.57;64.71;102083.50;5056526;28;45304;-60
2021/09/30 06:23:00;;;;;;;;;7.75;7.75;;;;;8.60;64.77;102088.59;5038207;28;45587;-60
2021/09/30 06:25:26;;;;;;;;;7.00;7.00;;;;;8.60;65.06;102091.19;5054750;28;47989;-60
2021/09/30 06:27:51;;;;;;;;;5.00;5.00;;;;;8.60;65.08;102083.34;5054626;28;49720;-60
2021/09/30 06:30:16;;;;;;;;;13.25;6.50;;;;;8.64;65.59;102089.28;5055308;28;61995;-60
2021/09/30 06:32:42;;;;;;;;;7.00;7.00;;;;;8.66;65.79;102083.00;5054771;28;45253;-60
2021/09/30 06:35:08;;;;;;;;;7.25;6.00;;;;;8.71;65.90;102075.72;5055277;28;67507;-60
2021/09/30 06:37:33;;;;;;;;;10.00;6.50;;;;;8.76;65.95;102078.09;5055711;28;45443;-60
2021/09/30 06:39:58;;;;;;;;;10.50;7.00;;;;;8.81;66.07;102080.47;5056165;28;45503;-60
2021/09/30 06:42:24;;;;;;;;;10.25;7.00;;;;;8.86;66.04;102081.06;5037406;28;58975;-60
2021/09/30 06:44:49;;;;;;;;;13.25;8.50;;;;;8.90;66.47;102079.94;5021060;28;46361;-60
2021/09/30 06:47:15;;;;;;;;;9.75;8.25;;;;;8.95;66.39;102087.53;5038179;28;45378;-60
2021/09/30 06:49:40;;;;;;;;;2.75;1.50;;;;;8.99;66.70;102079.44;5056210;28;45547;-60
2021/09/30 06:52:05;;;;;;;;;8.25;5.75;;;;;9.04;66.49;102082.59;5055163;28;68046;-60
2021/09/30 06:54:31;;;;;;;;;11.75;8.00;;;;;9.08;66.35;102082.44;5054621;28;69101;-60
2021/09/30 06:56:56;;;;;;;;;12.00;7.00;;;;;9.12;66.64;102074.31;5055817;28;45272;-60
2021/09/30 06:59:23;;;;;;;;;8.00;6.75;;;;;9.15;66.40;102068.03;5038166;28;45262;-59
2021/09/30 07:01:49;;;;;;;;;4.25;4.25;;;;;9.20;66.35;102068.63;5055916;28;45316;-60
2021/09/30 07:04:14;;;;;;;;;12.00;7.00;;;;;9.23;66.19;102063.19;5055415;28;46202;-60
2021/09/30 07:06:40;;;;;;;;;8.50;7.75;;;;;9.29;66.23;102061.97;5054945;28;71856;-59
2021/09/30 07:09:05;;;;;;;;;8.00;7.00;;;;;9.30;66.15;102063.69;5058805;28;57648;-60
2021/09/30 07:11:31;;;;;;;;;10.75;7.75;;;;;9.33;66.18;102060.88;5059252;28;45378;-60
2021/09/30 07:13:56;;;;;;;;;10.25;9.50;;;;;9.37;66.18;102054.50;5057991;28;74717;-60
2021/09/30 07:16:22;;;;;;;;;12.75;8.00;;;;;9.41;66.32;102052.56;5040361;28;67621;-60
2021/09/30 07:18:47;;;;;;;;;9.75;7.25;;;;;9.45;66.07;102061.94;5058793;28;50842;-60
2021/09/30 07:21:12;;;;;;;;;11.00;8.00;;;;;9.52;66.55;102063.28;5040222;28;66581;-60
2021/09/30 07:23:38;;;;;;;;;12.25;8.00;;;;;9.61;66.36;102064.50;5057958;28;64609;-60
2021/09/30 07:26:07;;;;;;;;;13.50;11.50;;;;;9.71;66.29;102067.41;5057999;28;71377;-60
2021/09/30 07:28:32;;;;;;;;;12.00;9.00;;;;;9.80;66.45;102070.31;5059338;28;45467;-60
2021/09/30 07:30:57;;;;;;;;;12.00;9.75;;;;;9.89;66.22;102074.16;5059122;28;45248;-60
2021/09/30 07:33:24;;;;;;;;;11.75;9.25;;;;;9.97;66.16;102080.75;5040924;28;45573;-61
2021/09/30 07:35:50;;;;;;;;;8.75;7.25;;;;;10.09;66.33;102079.97;5058912;28;45435;-60
2021/09/30 07:38:15;;;;;;;;;15.00;10.75;;;;;10.21;66.11;102075.75;5058842;28;45335;-60
2021/09/30 07:40:41;;;;;;;;;11.50;10.00;;;;;10.37;66.16;102080.88;5040440;28;45554;-61
2021/09/30 07:43:06;;;;;;;;;9.50;8.50;;;;;10.55;65.43;102078.91;5056256;28;66977;-61
2021/09/30 07:45:31;;;;;;;;;9.50;8.00;;;;;10.78;65.34;102077.41;5054771;28;45602;-61
2021/09/30 07:47:57;;;;;;;;;9.50;7.75;;;;;11.01;65.35;102064.56;5055018;28;62956;-61
2021/09/30 07:50:22;;;;;;;;;21.25;18.00;;;;;11.26;64.81;102071.66;5056489;28;45433;-60
2021/09/30 07:52:49;;;;;;;;;9.25;7.75;;;;;11.52;64.24;102069.06;5055277;28;66345;-61
2021/09/30 07:55:15;;;;;;;;;11.25;8.75;;;;;11.77;64.08;102069.16;5038111;28;45729;-61
2021/09/30 07:57:40;;;;;;;;;10.25;10.25;;;;;12.02;63.27;102061.28;5054913;28;52460;-61
2021/09/30 08:00:06;;;;;;;;;8.25;7.50;;;;;12.28;63.23;102063.00;5037394;28;49761;-61
2021/09/30 08:02:31;;;;;;;;;13.00;9.25;;;;;12.55;62.15;102061.97;5037532;28;45616;-61
2021/09/30 08:04:57;;;;;;;;;10.25;10.00;;;;;12.80;61.79;102050.47;5054873;28;69924;-61
2021/09/30 08:07:22;;;;;;;;;9.75;9.00;;;;;13.06;61.13;102048.50;5036795;28;64384;-61
2021/09/30 08:09:47;;;;;;;;;10.00;8.00;;;;;13.32;61.08;102060.69;5037116;28;56661;-61
2021/09/30 08:12:13;;;;;;;;;8.50;8.25;;;;;13.56;59.89;102065.09;5055377;28;46899;-61
2021/09/30 08:14:38;;;;;;;;;11.00;9.00;;;;;13.80;60.02;102062.38;5055137;28;59421;-61
2021/09/30 08:17:04;;;;;;;;;11.00;9.00;;;;;14.03;59.17;102071.13;5054976;28;45609;-61
2021/09/30 08:19:30;;;;;;;;;16.75;10.50;;;;;14.28;58.69;102068.34;5054611;28;45408;-61
2021/09/30 08:21:55;;;;;;;;;8.75;8.00;;;;;14.52;58.10;102068.16;5054588;28;47916;-61
2021/09/30 08:24:21;;;;;;;;;11.50;8.00;;;;;14.73;57.31;102070.88;5054802;28;64152;-61
2021/09/30 08:26:47;;;;;;;;;12.00;9.00;;;;;14.92;57.03;102077.31;5036958;28;45476;-62
2021/09/30 08:29:13;;;;;;;;;11.75;10.25;;;;;15.07;57.01;102078.72;5054663;28;45458;-61
2021/09/30 08:31:38;;;;;;;;;10.25;9.00;;;;;15.23;55.45;102075.63;5054945;28;45493;-61
2021/09/30 08:34:04;;;;;;;;;12.00;8.00;;;;;15.34;55.21;102079.16;5054479;28;45476;-61
2021/09/30 08:36:29;;;;;;;;;9.25;7.00;;;;;15.42;55.23;102069.59;5054851;28;48339;-61
2021/09/30 08:38:55;;;;;;;;;9.00;8.00;;;;;15.58;54.84;102071.78;5037165;28;45782;-61
2021/09/30 08:41:20;;;;;;;;;9.25;6.75;;;;;15.73;54.66;102074.09;5055087;28;63192;-61
2021/09/30 08:43:46;;;;;;;;;8.50;7.50;;;;;15.91;54.34;102076.97;5055272;28;45489;-62
2021/09/30 08:46:11;;;;;;;;;10.25;7.25;;;;;16.10;54.28;102070.06;5055972;28;45290;-58
2021/09/30 08:48:37;;;;;;;;;8.75;7.75;;;;;16.32;54.51;102069.84;5037618;28;45750;-59
2021/09/30 08:51:03;;;;;;;;;8.25;5.75;;;;;16.51;53.25;102068.22;5054951;28;46449;-59
2021/09/30 08:53:28;;;;;;;;;11.75;7.75;;;;;16.71;52.54;102068.19;5054831;28;45819;-59
2021/09/30 08:55:54;;;;;;;;;6.50;5.75;;;;;16.89;52.30;102060.41;5055402;28;45667;-59
2021/09/30 08:58:19;;;;;;;;;4.50;4.25;;;;;17.08;51.56;102058.72;5055148;28;45307;-59
2021/09/30 09:00:45;;;;;;;;;6.00;5.00;;;;;17.27;50.68;102056.06;5036275;28;63815;-59
2021/09/30 09:03:10;;;;;;;;;5.00;3.50;;;;;17.48;51.05;102049.72;5055138;28;45504;-59
2021/09/30 09:05:37;;;;;;;;;3.50;3.00;;;;;17.61;49.59;102039.56;5054893;28;45664;-59
2021/09/30 09:08:04;;;;;;;;;2.75;2.75;;;;;17.75;49.19;102043.56;5054899;28;45636;-59
2021/09/30 09:10:34;;;;;;;;;5.25;2.75;;;;;17.92;48.67;102046.44;5054792;28;45506;-59
2021/09/30 09:13:03;;;;;;;;;5.00;3.50;;;;;18.08;48.17;102040.50;5054268;28;45354;-59
2021/09/30 09:15:44;;;;;;;;;1.50;1.50;;;;;18.24;48.01;102039.88;5054285;28;45486;-59
2021/09/30 09:18:12;;;;;;;;;3.75;3.00;;;;;18.39;46.53;102045.50;5052838;28;45395;-59
2021/09/30 09:20:38;;;;;;;;;3.25;3.00;;;;;18.50;46.23;102034.66;5054004;28;45484;-59
2021/09/30 09:23:03;;;;;;;;;3.00;3.00;;;;;18.62;46.06;102034.38;5053384;28;45486;-59
2021/09/30 09:25:29;;;;;;;;;5.50;2.00;;;;;18.75;45.72;102021.53;5035447;28;63416;-60
2021/09/30 09:27:56;;;;;;;;;3.00;2.25;;;;;18.88;45.52;102029.13;5053190;28;45411;-59
2021/09/30 09:30:41;;;;;;;;;3.50;2.50;;;;;19.00;44.41;102029.75;5052382;28;45301;-61
2021/09/30 09:33:16;;;;;;;;;2.00;1.75;;;;;19.10;44.64;102019.00;5051960;28;45394;-59
2021/09/30 09:35:50;;;;;;;;;1.50;1.50;;;;;19.23;44.69;102029.22;5036534;28;45530;-59
2021/09/30 09:38:16;;;;;;;;;4.00;3.00;;;;;19.33;43.59;102029.97;5052012;28;45322;-59
2021/09/30 09:40:42;;;;;;;;;4.00;4.00;;;;;19.42;42.93;102028.16;5053386;28;45349;-59
2021/09/30 09:43:33;;;;;;;;;3.00;1.25;;;;;19.49;42.67;102020.41;5053199;28;45445;-59
2021/09/30 09:45:59;;;;;;;;;1.75;1.00;;;;;19.56;42.59;102018.75;5053163;28;45404;-59
2021/09/30 09:48:24;;;;;;;;;2.75;2.25;;;;;19.65;43.02;102028.44;5052366;28;49147;-59
2021/09/30 09:50:53;;;;;;;;;3.50;2.75;;;;;19.75;41.37;102027.50;5053813;28;45458;-60
2021/09/30 09:53:19;;;;;;;;;2.50;2.00;;;;;19.83;41.77;102030.19;5053523;28;45342;-59
2021/09/30 09:55:44;;;;;;;;;2.50;2.00;;;;;19.94;41.92;102026.41;5053666;28;45474;-59
2021/09/30 09:58:11;;;;;;;;;2.00;2.00;;;;;20.06;41.88;102025.13;5052772;28;45566;-59
2021/09/30 10:00:38;;;;;;;;;2.75;1.75;;;;;20.17;41.59;102023.97;5035916;28;45720;-59
2021/09/30 10:03:11;;;;;;;;;2.75;1.50;;;;;20.27;41.15;102032.69;5053135;28;45994;-59
2021/09/30 10:05:36;;;;;;;;;3.50;1.00;;;;;20.39;40.54;102025.22;5054070;28;45545;-60
2021/09/30 10:08:03;;;;;;;;;4.00;1.00;;;;;20.51;40.53;102028.41;5035235;28;63715;-60
2021/09/30 10:10:28;;;;;;;;;1.00;1.00;;;;;20.60;40.49;102022.06;5036052;28;46179;-59
2021/09/30 10:12:54;;;;;;;;;2.00;1.00;;;;;20.72;40.15;102021.72;5034493;28;73103;-60
2021/09/30 10:15:19;;;;;;;;;2.50;1.50;;;;;20.80;39.76;102008.38;5019293;28;62536;-60
2021/09/30 10:17:44;;;;;;;;;8.75;7.50;;;;;20.93;39.91;102009.72;5018360;28;66688;-60
2021/09/30 10:20:10;;;;;;;;;3.00;2.00;;;;;21.01;39.39;102010.53;5018421;28;73399;-60
2021/09/30 10:22:36;;;;;;;;;2.75;1.00;;;;;21.09;39.43;102017.72;5035152;28;45482;-60
2021/09/30 10:25:01;;;;;;;;;1.75;1.00;;;;;21.20;38.60;102017.34;5035069;28;66532;-60
2021/09/30 10:27:27;;;;;;;;;1.00;1.00;;;;;21.32;38.65;102014.31;5019458;28;45590;-61
2021/09/30 10:29:54;;;;;;;;;2.50;1.00;;;;;21.43;37.76;102010.44;5034381;28;74117;-60
2021/09/30 10:32:22;;;;;;;;;3.75;0.75;;;;;21.50;37.21;102014.06;5019153;28;45487;-60
2021/09/30 10:34:48;;;;;;;;;2.75;1.00;;;;;21.60;37.73;102005.88;5035201;28;45530;-60
2021/09/30 10:37:17;;;;;;;;;1.00;1.00;;;;;21.70;36.43;102000.34;5052614;28;45680;-60
2021/09/30 10:39:43;;;;;;;;;3.00;0.00;;;;;21.78;36.97;102009.16;5052688;28;45449;-60
2021/09/30 10:42:08;;;;;;;;;1.50;1.00;;;;;21.87;35.54;101993.06;5055383;28;45710;-60
2021/09/30 10:44:35;;;;;;;;;0.00;0.00;;;;;21.91;35.24;101992.53;5039352;28;45487;-60
2021/09/30 10:47:07;;;;;;;;;0.75;0.75;;;;;21.90;35.58;101992.69;5039165;28;45648;-60
2021/09/30 10:49:43;;;;;;;;;1.75;0.00;;;;;21.94;35.81;101997.53;5056890;28;50232;-60
2021/09/30 10:52:12;;;;;;;;;1.50;1.00;;;;;22.02;36.14;101993.97;5037579;28;45845;-61
2021/09/30 10:54:41;;;;;;;;;0.00;0.00;;;;;22.12;36.02;101987.56;5054782;28;45520;-60
2021/09/30 10:57:39;;;;;;;;;0.75;0.75;;;;;22.26;36.23;101986.78;5022318;28;45465;-60
2021/09/30 11:00:17;;;;;;;;;1.00;1.00;;;;;22.44;35.81;101975.81;5056590;28;45573;-60
2021/09/30 11:03:20;;;;;;;;;1.00;1.00;;;;;22.55;35.05;101971.88;5057155;28;45954;-60
2021/09/30 11:06:05;;;;;;;;;3.00;1.00;;;;;22.61;35.64;101975.66;5025126;28;45474;-60
2021/09/30 11:08:33;;;;;;;;;3.75;2.00;;;;;22.70;34.63;101968.41;5055679;28;45490;-60
2021/09/30 11:11:08;;;;;;;;;1.00;1.00;;;;;22.80;34.72;101960.91;5056540;28;45248;-61
2021/09/30 11:13:43;;;;;;;;;1.00;1.00;;;;;22.91;35.09;101946.25;5056671;28;45223;-60
2021/09/30 11:16:17;;;;;;;;;5.50;2.75;;;;;23.04;34.73;101948.28;5056726;28;45272;-60
2021/09/30 11:18:50;;;;;;;;;11.00;10.50;;;;;23.16;35.05;101948.63;5056075;28;45507;-60
2021/09/30 11:21:31;;;;;;;;;0.00;0.00;;;;;23.26;34.14;101939.34;5056856;28;45644;-60
2021/09/30 11:24:06;;;;;;;;;4.25;2.00;;;;;23.38;33.87;101944.19;5056547;28;45226;-60
2021/09/30 11:26:35;;;;;;;;;1.25;0.00;;;;;23.50;33.44;101948.06;5054782;28;45194;-61
2021/09/30 11:29:19;;;;;;;;;4.00;0.75;;;;;23.58;33.24;101940.94;5038027;28;45444;-60
2021/09/30 11:31:45;;;;;;;;;1.75;1.00;;;;;23.66;33.36;101940.84;5056342;28;45922;-60
2021/09/30 11:34:17;;;;;;;;;1.00;1.00;;;;;23.74;33.03;101927.31;5056486;28;45293;-60
2021/09/30 11:36:43;;;;;;;;;1.00;0.00;;;;;23.80;31.71;101931.06;5056417;28;45277;-60
2021/09/30 11:39:08;;;;;;;;;0.00;0.00;;;;;23.79;32.72;101924.88;5055448;28;62920;-60
2021/09/30 11:41:35;;;;;;;;;2.50;1.00;;;;;23.86;32.54;101928.44;5056127;28;45494;-61
2021/09/30 11:44:00;;;;;;;;;3.00;0.50;;;;;23.90;32.73;101930.75;5056483;28;45504;-60
2021/09/30 11:46:31;;;;;;;;;1.00;1.00;;;;;23.89;32.06;101929.94;5056173;28;45498;-60
2021/09/30 11:49:00;;;;;;;;;1.50;0.25;;;;;23.82;32.04;101923.66;5055442;28;45534;-60
2021/09/30 11:51:32;;;;;;;;;2.00;1.00;;;;;23.70;32.44;101917.97;5055713;28;45572;-61
2021/09/30 11:53:58;;;;;;;;;2.50;1.00;;;;;23.60;32.26;101923.63;5053278;28;45676;-60
2021/09/30 11:56:23;;;;;;;;;2.75;1.00;;;;;23.51;32.22;101914.88;5021390;28;45514;-61
2021/09/30 11:59:02;;;;;;;;;0.00;0.00;;;;;23.40;32.40;101912.66;5055421;28;45688;-60
2021/09/30 12:01:35;;;;;;;;;1.50;1.00;;;;;23.20;32.23;101912.38;5055747;28;45620;-61
2021/09/30 12:04:00;;;;;;;;;1.00;1.00;;;;;22.94;32.45;101911.03;5055771;28;45678;-61
2021/09/30 12:06:41;;;;;;;;;0.00;0.00;;;;;22.67;32.76;101906.13;5055968;28;45638;-60
2021/09/30 12:09:10;;;;;;;;;3.75;3.00;;;;;22.42;33.66;101901.97;5036726;28;45573;-60
2021/09/30 12:11:39;;;;;;;;;4.00;3.25;;;;;22.20;33.86;101893.81;5036890;28;45508;-60
2021/09/30 12:14:06;;;;;;;;;0.00;0.00;;;;;21.98;33.40;101901.66;5055593;28;45900;-60
2021/09/30 12:16:31;;;;;;;;;1.25;1.25;;;;;21.74;33.78;101891.97;5055764;28;45384;-61
2021/09/30 12:19:00;;;;;;;;;0.50;0.00;;;;;21.52;33.18;101888.22;5055603;28;45529;-60
2021/09/30 12:21:39;;;;;;;;;1.00;0.00;;;;;21.26;33.78;101881.34;5053211;28;45589;-60
2021/09/30 12:24:08;;;;;;;;;0.00;0.00;;;;;21.02;34.10;101872.44;5054771;28;45265;-60
2021/09/30 12:26:34;;;;;;;;;0.00;0.00;;;;;20.87;33.99;101865.13;5037722;28;45561;-59
2021/09/30 12:28:59;;;;;;;;;1.00;0.75;;;;;20.72;34.78;101859.63;5036396;28;66210;-60
2021/09/30 12:31:25;;;;;;;;;2.00;0.50;;;;;20.61;35.52;101851.97;5053986;28;71370;-61
2021/09/30 12:33:50;;;;;;;;;0.00;0.00;;;;;20.49;34.62;101859.53;5055041;28;51619;-60
2021/09/30 12:36:19;;;;;;;;;0.00;0.00;;;;;20.36;34.91;101857.38;5055446;28;45807;-60
2021/09/30 12:38:58;;;;;;;;;0.00;0.00;;;;;20.22;35.50;101858.06;5055312;28;45667;-60
2021/09/30 12:41:23;;;;;;;;;0.00;0.00;;;;;20.10;35.41;101854.91;5037379;28;45458;-60
2021/09/30 12:43:48;;;;;;;;;0.25;0.00;;;;;20.01;36.25;101852.22;5036739;28;45671;-60
2021/09/30 12:46:17;;;;;;;;;1.25;0.00;;;;;19.95;35.90;101852.03;5037436;28;45468;-60
2021/09/30 12:48:43;;;;;;;;;1.00;0.00;;;;;19.86;34.90;101848.50;5037389;28;45500;-60
2021/09/30 12:51:12;;;;;;;;;0.75;0.00;;;;;19.77;34.85;101841.50;5055467;28;46203;-60
2021/09/30 12:53:50;;;;;;;;;1.00;0.00;;;;;19.69;35.39;101845.81;5068933;28;45874;-60
2021/09/30 12:56:17;;;;;;;;;0.00;0.00;;;;;19.65;35.42;101841.00;5055106;28;45406;-60
2021/09/30 12:58:47;;;;;;;;;0.00;0.00;;;;;19.60;36.05;101838.81;5037076;28;45506;-60
2021/09/30 13:01:25;;;;;;;;;1.75;0.00;;;;;19.55;35.53;101841.97;5053778;28;46104;-60
2021/09/30 13:04:12;;;;;;;;;0.00;0.00;;;;;19.49;35.64;101831.13;5054385;28;45988;-60
2021/09/30 13:06:40;;;;;;;;;0.00;0.00;;;;;19.46;35.68;101832.28;5037412;28;45432;-60
2021/09/30 13:09:05;;;;;;;;;0.00;0.00;;;;;19.45;35.68;101824.47;5054677;28;45319;-60
2021/09/30 13:11:35;;;;;;;;;0.00;0.00;;;;;19.41;36.24;101818.59;5035690;28;45511;-60
2021/09/30 13:14:13;;;;;;;;;1.25;0.00;;;;;19.41;35.69;101815.94;5036542;28;45749;-60
2021/09/30 13:16:38;;;;;;;;;0.00;0.00;;;;;19.37;35.64;101807.44;5035325;28;45574;-60
2021/09/30 13:19:04;;;;;;;;;0.00;0.00;;;;;19.33;35.85;101806.09;5034668;28;64771;-60
2021/09/30 13:21:29;;;;;;;;;1.50;0.50;;;;;19.33;36.57;101806.09;5035737;28;45550;-60
2021/09/30 13:23:55;;;;;;;;;0.25;0.00;;;;;19.33;35.68;101806.09;5053624;28;67047;-60
2021/09/30 13:26:20;;;;;;;;;2.00;1.00;;;;;19.33;35.77;101795.44;5055234;28;45565;-60
2021/09/30 13:28:45;;;;;;;;;2.00;1.00;;;;;19.32;36.91;101790.28;5035127;28;66693;-60
2021/09/30 13:31:11;;;;;;;;;1.25;1.00;;;;;19.29;36.17;101791.44;5054418;28;46133;-59
2021/09/30 13:33:36;;;;;;;;;1.00;0.00;;;;;19.27;36.60;101790.75;5053699;28;49370;-60
2021/09/30 13:36:01;;;;;;;;;2.00;1.00;;;;;19.25;37.10;101782.94;5053453;28;61331;-60
2021/09/30 13:38:27;;;;;;;;;2.75;2.00;;;;;19.26;36.94;101781.09;5035130;28;64430;-60
2021/09/30 13:40:52;;;;;;;;;1.00;0.25;;;;;19.22;35.96;101782.44;5053570;28;66065;-60
2021/09/30 13:43:18;;;;;;;;;0.75;0.25;;;;;19.16;36.15;101783.91;5053064;28;67684;-60
2021/09/30 13:45:44;;;;;;;;;1.75;0.25;;;;;19.15;36.13;101773.41;5054375;28;45626;-60
2021/09/30 13:48:09;;;;;;;;;2.00;1.00;;;;;19.15;36.43;101768.09;5053797;28;45469;-60
2021/09/30 13:50:34;;;;;;;;;1.75;0.00;;;;;19.15;35.72;101762.75;5053494;28;69430;-60
2021/09/30 13:53:00;;;;;;;;;0.50;0.00;;;;;19.13;36.55;101758.44;5053905;28;45459;-60
2021/09/30 13:55:26;;;;;;;;;2.75;0.50;;;;;19.13;36.55;101760.28;5053665;28;62151;-59
2021/09/30 13:57:52;;;;;;;;;2.00;0.00;;;;;19.12;36.67;101759.41;5053670;28;45490;-60
2021/09/30 14:00:18;;;;;;;;;1.00;1.00;;;;;19.09;36.40;101750.94;5054070;28;45548;-60
2021/09/30 14:02:45;;;;;;;;;0.50;0.00;;;;;19.06;36.12;101746.78;5053686;28;45589;-60
2021/09/30 14:05:11;;;;;;;;;0.00;0.00;;;;;19.05;36.73;101746.94;5036096;28;45265;-60
2021/09/30 14:07:40;;;;;;;;;0.25;0.00;;;;;19.02;36.24;101745.44;5036031;28;45452;-59
2021/09/30 14:10:06;;;;;;;;;2.50;1.00;;;;;18.99;35.96;101745.75;5053455;28;46468;-60
2021/09/30 14:12:32;;;;;;;;;1.00;1.00;;;;;18.98;36.44;101736.91;5035468;28;45522;-59
2021/09/30 14:14:58;;;;;;;;;1.00;0.50;;;;;18.97;37.31;101732.59;5035395;28;45493;-60
2021/09/30 14:17:23;;;;;;;;;2.00;1.00;;;;;18.97;36.20;101721.94;5053027;28;45584;-60